Terminal Aerodrome Forecast
Issued by NWS

Current Version | Previous Version | Text Only | Print | Product List | Glossary On
Versions: 1 2 3 4 5 6 7 8 9 10 11 12 13 14 15 16 17 18 19 20 21 22 23
000
FTUS45 KGJT 160526
TAFASE
TAF
KASE 160526Z 1606/1706 12008KT P6SM BKN120
     FM160900 16005KT P6SM VCSH BKN050 OVC100
     FM161600 24005KT P6SM BKN100
     FM161900 34008G16KT P6SM VCSH SCT040 OVC060
     FM170200 23005KT P6SM SCT060 BKN150=

USA.gov is the U.S. government's official web portal to all federal, state and local government web resources and services.